METAR Data
IDs: Format: Raw Decoded Include TAF

Data at: 0833 UTC 01 Aug 2021

ELLX 010820Z 28010KT 240V300 9999 FEW021 16/11 Q1011 NOSIG